La Luna — 2BJU9 — position and weather

sailwx.info

Track history (hours):
 
Tides and Currents Weather Stations Pressure Air Temp Water Temp Dewpoint Dewpoint Depression Visibility Wind Speed Wind Dir Waves Ship Positions

La Luna

Last reported at 2014-Oct-14 13:20 UTC. Time now 2014-Oct-25 11:58 UTC.
Position N 39°25' E 002°30'.
Warning: this ship's position is 10 days out of date.

Type: Pleasure craft. MMSI: 235066733.

Date/timePositionNaut miles runAvg speedWind from/ knotsBaromVisibWave heightAir tempDewpointWater temp
2014-Oct-14 13:20N 39°25' E 002°30'6 0.2
2014-Oct-13 09:30N 39°30' E 002°33'  
2014-Oct-10 12:16N 39°28' E 002°32'6 8.3
2014-Oct-10 11:33N 39°32' E 002°37'2 2.1
2014-Oct-10 10:33N 39°34' E 002°39'0 0.0
2014-Oct-10 09:33N 39°34' E 002°39'0 0.0
2014-Oct-10 08:33N 39°34' E 002°39'0 0.0
2014-Oct-10 07:33N 39°34' E 002°39'0 0.0
2014-Oct-10 06:33N 39°34' E 002°39'0 0.0
2014-Oct-10 05:33N 39°34' E 002°39'0 0.0
2014-Oct-10 04:33N 39°34' E 002°39'0 0.0
2014-Oct-10 03:33N 39°34' E 002°39'0 0.0
2014-Oct-10 02:33N 39°34' E 002°39'0 0.0
2014-Oct-10 01:33N 39°34' E 002°39'0 0.0
2014-Oct-10 00:32N 39°34' E 002°39'0 0.0
2014-Oct-09 23:33N 39°34' E 002°39'0 0.0
2014-Oct-09 22:33N 39°34' E 002°39'0 0.0
2014-Oct-09 21:33N 39°34' E 002°39'0 0.0
2014-Oct-09 20:33N 39°34' E 002°39'0 0.0
2014-Oct-09 19:32N 39°34' E 002°39'0 0.0
2014-Oct-09 18:32N 39°34' E 002°39'0 0.0
2014-Oct-09 17:33N 39°34' E 002°39'0 0.0
2014-Oct-09 16:33N 39°34' E 002°39'0 0.0
2014-Oct-09 15:33N 39°34' E 002°39'0 0.0
2014-Oct-09 14:31N 39°34' E 002°39'0 0.0
2014-Oct-09 13:31N 39°34' E 002°39'0 0.0
2014-Oct-09 12:28N 39°34' E 002°39'0 0.0
2014-Oct-09 11:31N 39°34' E 002°39'0 0.0
2014-Oct-09 10:31N 39°34' E 002°39'0 0.0
2014-Oct-09 09:31N 39°34' E 002°39'0 0.0
2014-Oct-09 08:31N 39°34' E 002°39'0 0.0
2014-Oct-09 07:31N 39°34' E 002°39'0 0.0
2014-Oct-09 06:31N 39°34' E 002°39'0 0.0
2014-Oct-09 05:31N 39°34' E 002°39'0 0.0
2014-Oct-09 04:28N 39°34' E 002°39'0 0.0
2014-Oct-09 03:33N 39°34' E 002°39'0 0.0
2014-Oct-09 02:31N 39°34' E 002°39'0 0.0
2014-Oct-09 01:31N 39°34' E 002°39'0 0.0
2014-Oct-09 00:31N 39°34' E 002°39'0 0.0
2014-Oct-08 23:31N 39°34' E 002°39'0 0.0
2014-Oct-08 22:31N 39°34' E 002°39'0 0.0
2014-Oct-08 21:31N 39°34' E 002°39'0 0.0
2014-Oct-08 20:31N 39°34' E 002°39'0 0.0
2014-Oct-08 19:31N 39°34' E 002°39'0 0.0
2014-Oct-08 18:31N 39°34' E 002°39'0 0.0
2014-Oct-08 17:31N 39°34' E 002°39'0 0.0
2014-Oct-08 16:31N 39°34' E 002°39'0 0.0
2014-Oct-08 15:31N 39°34' E 002°39'0 0.0
2014-Oct-08 14:28N 39°34' E 002°39'0 0.0
2014-Oct-08 13:31N 39°34' E 002°39'0 0.0
2014-Oct-08 12:21N 39°34' E 002°39'0 0.0
2014-Oct-08 11:33N 39°34' E 002°39'0 0.0
2014-Oct-08 10:31N 39°34' E 002°39'0 0.0
2014-Oct-08 09:31N 39°34' E 002°39'1 0.7
2014-Oct-08 08:31N 39°34' E 002°38'0 0.0
2014-Oct-08 07:31N 39°34' E 002°38'0 0.0
2014-Oct-08 06:31N 39°34' E 002°38'0 0.0
2014-Oct-08 05:31N 39°34' E 002°38'0 0.0
2014-Oct-08 04:31N 39°34' E 002°38'0 0.0
2014-Oct-08 03:31N 39°34' E 002°38'0 0.0
2014-Oct-08 02:31N 39°34' E 002°38'0 0.0
2014-Oct-08 01:31N 39°34' E 002°38'0 0.0
2014-Oct-08 00:33N 39°34' E 002°38'0 0.0
2014-Oct-07 23:32N 39°34' E 002°38'0 0.0
2014-Oct-07 22:33N 39°34' E 002°38'0 0.0
2014-Oct-07 21:33N 39°34' E 002°38'0 0.0
2014-Oct-07 20:33N 39°34' E 002°38'0 0.0
2014-Oct-07 19:33N 39°34' E 002°38'0 0.0
2014-Oct-07 18:33N 39°34' E 002°38'0 0.0
2014-Oct-07 17:33N 39°34' E 002°38'0 0.0
2014-Oct-07 16:33N 39°34' E 002°38'0 0.0
2014-Oct-07 15:33N 39°34' E 002°38'0 0.0
2014-Oct-07 14:33N 39°34' E 002°38'0 0.0
2014-Oct-07 13:33N 39°34' E 002°38'0 0.0
2014-Oct-07 12:33N 39°34' E 002°38'3 3.2
2014-Oct-07 11:33N 39°30' E 002°38'  
2014-Oct-05 03:15N 38°22' E 013°21'  
Track history (hours):
 
Tides and Currents Weather Stations Pressure Air Temp Water Temp Dewpoint Dewpoint Depression Visibility Wind Speed Wind Dir Waves Ship Positions

La Luna

Last reported at 2014-Oct-14 13:20 UTC. Time now 2014-Oct-25 11:58 UTC.
Position N 39°25' E 002°30'.
Warning: this ship's position is 10 days out of date.

Type: Pleasure craft. MMSI: 235066733.

Date/timePositionNaut miles runAvg speedWind from/ knotsBaromVisibWave heightAir tempDewpointWater temp
2014-Oct-14 13:20N 39°25' E 002°30'6 0.2
2014-Oct-13 09:30N 39°30' E 002°33'  
2014-Oct-10 12:16N 39°28' E 002°32'6 8.3
2014-Oct-10 11:33N 39°32' E 002°37'2 2.1
2014-Oct-10 10:33N 39°34' E 002°39'0 0.0
2014-Oct-10 09:33N 39°34' E 002°39'0 0.0
2014-Oct-10 08:33N 39°34' E 002°39'0 0.0
2014-Oct-10 07:33N 39°34' E 002°39'0 0.0
2014-Oct-10 06:33N 39°34' E 002°39'0 0.0
2014-Oct-10 05:33N 39°34' E 002°39'0 0.0
2014-Oct-10 04:33N 39°34' E 002°39'0 0.0
2014-Oct-10 03:33N 39°34' E 002°39'0 0.0
2014-Oct-10 02:33N 39°34' E 002°39'0 0.0
2014-Oct-10 01:33N 39°34' E 002°39'0 0.0
2014-Oct-10 00:32N 39°34' E 002°39'0 0.0
2014-Oct-09 23:33N 39°34' E 002°39'0 0.0
2014-Oct-09 22:33N 39°34' E 002°39'0 0.0
2014-Oct-09 21:33N 39°34' E 002°39'0 0.0
2014-Oct-09 20:33N 39°34' E 002°39'0 0.0
2014-Oct-09 19:32N 39°34' E 002°39'0 0.0
2014-Oct-09 18:32N 39°34' E 002°39'0 0.0
2014-Oct-09 17:33N 39°34' E 002°39'0 0.0
2014-Oct-09 16:33N 39°34' E 002°39'0 0.0
2014-Oct-09 15:33N 39°34' E 002°39'0 0.0
2014-Oct-09 14:31N 39°34' E 002°39'0 0.0
2014-Oct-09 13:31N 39°34' E 002°39'0 0.0
2014-Oct-09 12:28N 39°34' E 002°39'0 0.0
2014-Oct-09 11:31N 39°34' E 002°39'0 0.0
2014-Oct-09 10:31N 39°34' E 002°39'0 0.0
2014-Oct-09 09:31N 39°34' E 002°39'0 0.0
2014-Oct-09 08:31N 39°34' E 002°39'0 0.0
2014-Oct-09 07:31N 39°34' E 002°39'0 0.0
2014-Oct-09 06:31N 39°34' E 002°39'0 0.0
2014-Oct-09 05:31N 39°34' E 002°39'0 0.0
2014-Oct-09 04:28N 39°34' E 002°39'0 0.0
2014-Oct-09 03:33N 39°34' E 002°39'0 0.0
2014-Oct-09 02:31N 39°34' E 002°39'0 0.0
2014-Oct-09 01:31N 39°34' E 002°39'0 0.0
2014-Oct-09 00:31N 39°34' E 002°39'0 0.0
2014-Oct-08 23:31N 39°34' E 002°39'0 0.0
2014-Oct-08 22:31N 39°34' E 002°39'0 0.0
2014-Oct-08 21:31N 39°34' E 002°39'0 0.0
2014-Oct-08 20:31N 39°34' E 002°39'0 0.0
2014-Oct-08 19:31N 39°34' E 002°39'0 0.0
2014-Oct-08 18:31N 39°34' E 002°39'0 0.0
2014-Oct-08 17:31N 39°34' E 002°39'0 0.0
2014-Oct-08 16:31N 39°34' E 002°39'0 0.0
2014-Oct-08 15:31N 39°34' E 002°39'0 0.0
2014-Oct-08 14:28N 39°34' E 002°39'0 0.0
2014-Oct-08 13:31N 39°34' E 002°39'0 0.0
2014-Oct-08 12:21N 39°34' E 002°39'0 0.0
2014-Oct-08 11:33N 39°34' E 002°39'0 0.0
2014-Oct-08 10:31N 39°34' E 002°39'0 0.0
2014-Oct-08 09:31N 39°34' E 002°39'1 0.7
2014-Oct-08 08:31N 39°34' E 002°38'0 0.0
2014-Oct-08 07:31N 39°34' E 002°38'0 0.0
2014-Oct-08 06:31N 39°34' E 002°38'0 0.0
2014-Oct-08 05:31N 39°34' E 002°38'0 0.0
2014-Oct-08 04:31N 39°34' E 002°38'0 0.0
2014-Oct-08 03:31N 39°34' E 002°38'0 0.0
2014-Oct-08 02:31N 39°34' E 002°38'0 0.0
2014-Oct-08 01:31N 39°34' E 002°38'0 0.0
2014-Oct-08 00:33N 39°34' E 002°38'0 0.0
2014-Oct-07 23:32N 39°34' E 002°38'0 0.0
2014-Oct-07 22:33N 39°34' E 002°38'0 0.0
2014-Oct-07 21:33N 39°34' E 002°38'0 0.0
2014-Oct-07 20:33N 39°34' E 002°38'0 0.0
2014-Oct-07 19:33N 39°34' E 002°38'0 0.0
2014-Oct-07 18:33N 39°34' E 002°38'0 0.0
2014-Oct-07 17:33N 39°34' E 002°38'0 0.0
2014-Oct-07 16:33N 39°34' E 002°38'0 0.0
2014-Oct-07 15:33N 39°34' E 002°38'0 0.0
2014-Oct-07 14:33N 39°34' E 002°38'0 0.0
2014-Oct-07 13:33N 39°34' E 002°38'0 0.0
2014-Oct-07 12:33N 39°34' E 002°38'3 3.2
2014-Oct-07 11:33N 39°30' E 002°38'  
2014-Oct-05 03:15N 38°22' E 013°21'  

Dump ship's entire track history